Time;durP1;ratioP1;P1;durP2;ratioP2;P2;SDS_P1;SDS_P2;PMS_P1;PMS_P2;Temp;Humidity;BMP_temperature;BMP_pressure;BME280_temperature;BME280_humidity;BME280_pressure;Samples;Min_cycle;Max_cycle;Signal;HPM_P1;HPM_P2
2023/05/30 00:01:44;;;;;;;;;;;23.40;41.00;;;;;;1553535;76;784;-60
2023/05/30 00:03:46;;;;;;;;;;;23.40;41.00;;;;;;1549883;76;1927;-60
2023/05/30 00:05:48;;;;;;;;;;;23.50;41.10;;;;;;1540310;75;1070;-60
2023/05/30 00:07:50;;;;;;;;;;;23.50;41.10;;;;;;1541772;75;1187;-61
2023/05/30 00:09:52;;;;;;;;;;;23.50;41.20;;;;;;1538786;76;750;-61
2023/05/30 00:11:56;;;;;;;;;;;23.40;41.00;;;;;;1541002;75;753;-61
2023/05/30 00:13:58;;;;;;;;;;;23.40;41.00;;;;;;1540032;76;1843;-61
2023/05/30 00:16:03;;;;;;;;;;;23.40;41.10;;;;;;1550580;75;781;-62
2023/05/30 00:18:05;;;;;;;;;;;23.40;41.00;;;;;;1529116;75;1126;-62
2023/05/30 00:20:08;;;;;;;;;;;23.50;41.20;;;;;;1522838;76;738;-62
2023/05/30 00:22:10;;;;;;;;;;;23.50;41.30;;;;;;1546544;75;710;-63
2023/05/30 00:24:13;;;;;;;;;;;23.40;41.10;;;;;;1538427;75;1932;-62
2023/05/30 00:26:15;;;;;;;;;;;23.40;41.10;;;;;;1542170;76;1475;-63
2023/05/30 00:28:17;;;;;;;;;;;23.40;41.00;;;;;;1549044;75;1129;-62
2023/05/30 00:30:18;;;;;;;;;;;23.50;41.20;;;;;;1539884;75;787;-63
2023/05/30 00:32:20;;;;;;;;;;;23.50;41.20;;;;;;1545944;75;720;-63
2023/05/30 00:34:22;;;;;;;;;;;23.40;41.00;;;;;;1545563;75;782;-62
2023/05/30 00:36:24;;;;;;;;;;;23.40;41.00;;;;;;1548296;75;656;-62
2023/05/30 00:38:26;;;;;;;;;;;23.50;41.10;;;;;;1545950;75;1163;-62
2023/05/30 00:40:28;;;;;;;;;;;23.40;41.00;;;;;;1535921;75;1399;-62
2023/05/30 00:42:30;;;;;;;;;;;23.40;41.10;;;;;;1548668;76;775;-62
2023/05/30 00:44:32;;;;;;;;;;;23.40;41.00;;;;;;1554909;75;1927;-62
2023/05/30 00:46:33;;;;;;;;;;;23.40;41.10;;;;;;1557424;75;764;-62
2023/05/30 00:48:36;;;;;;;;;;;23.40;41.00;;;;;;1542556;75;1077;-62
2023/05/30 00:50:38;;;;;;;;;;;23.50;41.20;;;;;;1548676;75;708;-62
2023/05/30 00:52:40;;;;;;;;;;;23.40;41.10;;;;;;1560277;75;703;-62
2023/05/30 00:54:43;;;;;;;;;;;23.50;41.30;;;;;;1553357;75;1481;-61
2023/05/30 00:56:45;;;;;;;;;;;23.40;41.20;;;;;;1532916;75;1090;-61
2023/05/30 00:58:47;;;;;;;;;;;23.40;41.20;;;;;;1538339;75;778;-61
2023/05/30 01:00:48;;;;;;;;;;;23.40;41.20;;;;;;1532950;76;756;-61
2023/05/30 01:02:51;;;;;;;;;;;23.50;41.30;;;;;;1546128;75;696;-61
2023/05/30 01:04:53;;;;;;;;;;;23.40;41.20;;;;;;1545707;75;1927;-61
2023/05/30 01:06:55;;;;;;;;;;;23.50;41.30;;;;;;1535675;76;1158;-60
2023/05/30 01:08:58;;;;;;;;;;;23.40;41.10;;;;;;1540438;76;1451;-59
2023/05/30 01:11:15;;;;;;;;;;;23.50;41.20;;;;;;1523739;76;956;-60
2023/05/30 01:13:18;;;;;;;;;;;23.50;41.00;;;;;;1498316;76;1168;-61
2023/05/30 01:15:25;;;;;;;;;;;23.40;40.80;;;;;;1528675;76;667;-61
2023/05/30 01:17:45;;;;;;;;;;;23.40;40.70;;;;;;1516711;76;1122;-62
2023/05/30 01:19:51;;;;;;;;;;;23.40;40.90;;;;;;1542070;76;778;-61
2023/05/30 01:21:55;;;;;;;;;;;23.40;41.00;;;;;;1516534;76;1574;-62
2023/05/30 01:24:02;;;;;;;;;;;23.40;41.00;;;;;;1546198;76;1919;-61
2023/05/30 01:26:05;;;;;;;;;;;23.40;41.00;;;;;;1519260;76;715;-61
2023/05/30 01:28:13;;;;;;;;;;;23.40;41.00;;;;;;1544494;76;1122;-61
2023/05/30 01:30:15;;;;;;;;;;;23.40;40.90;;;;;;1519237;76;706;-62
2023/05/30 01:32:17;;;;;;;;;;;23.40;40.70;;;;;;1531417;76;743;-61
2023/05/30 01:34:19;;;;;;;;;;;23.50;40.90;;;;;;1538157;76;666;-61
2023/05/30 01:36:21;;;;;;;;;;;23.50;40.80;;;;;;1524810;76;762;-61
2023/05/30 01:38:23;;;;;;;;;;;23.40;40.60;;;;;;1539357;76;1587;-61
2023/05/30 01:40:25;;;;;;;;;;;23.50;40.70;;;;;;1526894;76;719;-61
2023/05/30 01:42:27;;;;;;;;;;;23.30;40.50;;;;;;1538584;76;744;-61
2023/05/30 01:44:33;;;;;;;;;;;23.30;40.50;;;;;;1543376;76;1947;-61
2023/05/30 01:46:36;;;;;;;;;;;23.40;40.50;;;;;;1521496;76;766;-61
2023/05/30 01:48:48;;;;;;;;;;;23.40;40.60;;;;;;1519847;76;1151;-61
2023/05/30 01:50:50;;;;;;;;;;;23.30;40.50;;;;;;1534807;76;1466;-61
2023/05/30 01:52:54;;;;;;;;;;;23.30;40.50;;;;;;1526414;76;737;-61
2023/05/30 01:54:58;;;;;;;;;;;23.40;40.50;;;;;;1528754;76;1673;-62
2023/05/30 01:57:02;;;;;;;;;;;23.30;40.60;;;;;;1530998;76;1134;-60
2023/05/30 01:59:04;;;;;;;;;;;23.30;40.90;;;;;;1527628;76;1640;-60
2023/05/30 02:01:07;;;;;;;;;;;23.20;40.80;;;;;;1544382;76;716;-60
2023/05/30 02:03:10;;;;;;;;;;;23.20;40.90;;;;;;1540220;76;757;-60
2023/05/30 02:05:12;;;;;;;;;;;23.20;40.90;;;;;;1544407;76;1945;-60
2023/05/30 02:07:14;;;;;;;;;;;23.30;41.00;;;;;;1568790;75;1222;-60
2023/05/30 02:09:16;;;;;;;;;;;23.30;41.00;;;;;;1558018;74;674;-61
2023/05/30 02:11:18;;;;;;;;;;;23.20;40.80;;;;;;1553954;75;723;-61
2023/05/30 02:13:20;;;;;;;;;;;23.20;40.70;;;;;;1567407;74;708;-60
2023/05/30 02:15:22;;;;;;;;;;;23.20;40.60;;;;;;1562295;75;697;-60
2023/05/30 02:17:25;;;;;;;;;;;23.20;40.50;;;;;;1573334;74;1130;-60
2023/05/30 02:19:27;;;;;;;;;;;23.20;40.50;;;;;;1559537;75;1523;-60
2023/05/30 02:21:29;;;;;;;;;;;23.20;40.60;;;;;;1554553;74;656;-61
2023/05/30 02:23:30;;;;;;;;;;;23.20;40.80;;;;;;1562244;74;797;-61
2023/05/30 02:25:32;;;;;;;;;;;23.20;40.80;;;;;;1560936;75;1946;-61
2023/05/30 02:27:34;;;;;;;;;;;23.20;40.80;;;;;;1566811;75;1137;-61
2023/05/30 02:29:36;;;;;;;;;;;23.20;40.80;;;;;;1554940;74;810;-61
2023/05/30 02:31:38;;;;;;;;;;;23.10;40.80;;;;;;1553927;75;658;-61
2023/05/30 02:33:40;;;;;;;;;;;23.10;40.80;;;;;;1564581;75;1544;-60
2023/05/30 02:35:42;;;;;;;;;;;23.20;40.80;;;;;;1547699;75;611;-60
2023/05/30 02:37:45;;;;;;;;;;;23.10;40.80;;;;;;1556656;74;1170;-60
2023/05/30 02:39:47;;;;;;;;;;;23.20;40.80;;;;;;1565289;75;830;-60
2023/05/30 02:41:49;;;;;;;;;;;23.20;40.80;;;;;;1562425;75;706;-60
2023/05/30 02:43:50;;;;;;;;;;;23.10;40.90;;;;;;1562621;75;669;-60
2023/05/30 02:45:52;;;;;;;;;;;23.10;40.90;;;;;;1557032;74;1942;-61
2023/05/30 02:47:54;;;;;;;;;;;23.10;40.90;;;;;;1567329;75;1604;-61
2023/05/30 02:49:56;;;;;;;;;;;23.10;40.90;;;;;;1564065;75;682;-60
2023/05/30 02:51:58;;;;;;;;;;;23.10;40.90;;;;;;1554893;75;701;-60
2023/05/30 02:54:00;;;;;;;;;;;23.10;40.90;;;;;;1562124;75;732;-61
2023/05/30 02:56:02;;;;;;;;;;;23.10;40.80;;;;;;1547618;74;679;-60
2023/05/30 02:58:04;;;;;;;;;;;23.10;40.90;;;;;;1554593;74;1119;-61
2023/05/30 03:00:06;;;;;;;;;;;23.10;40.80;;;;;;1556867;74;695;-61
2023/05/30 03:02:09;;;;;;;;;;;23.10;40.80;;;;;;1568435;75;1663;-61
2023/05/30 03:04:12;;;;;;;;;;;23.10;40.80;;;;;;1557533;75;1914;-61
2023/05/30 03:06:14;;;;;;;;;;;23.00;40.70;;;;;;1563205;75;1093;-61
2023/05/30 03:08:16;;;;;;;;;;;23.10;40.80;;;;;;1558120;76;1165;-61
2023/05/30 03:10:18;;;;;;;;;;;23.10;40.70;;;;;;1530900;76;760;-61
2023/05/30 03:12:22;;;;;;;;;;;23.00;40.60;;;;;;1535746;76;734;-60
2023/05/30 03:14:23;;;;;;;;;;;23.10;40.60;;;;;;1547588;76;1625;-60
2023/05/30 03:16:26;;;;;;;;;;;23.00;40.50;;;;;;1538735;76;1450;-60
2023/05/30 03:18:28;;;;;;;;;;;23.00;40.50;;;;;;1539403;76;1135;-60
2023/05/30 03:20:31;;;;;;;;;;;23.00;40.40;;;;;;1540564;76;675;-60
2023/05/30 03:22:34;;;;;;;;;;;23.10;40.50;;;;;;1516482;76;742;-60
2023/05/30 03:24:36;;;;;;;;;;;23.00;40.40;;;;;;1530572;76;1928;-60
2023/05/30 03:26:38;;;;;;;;;;;23.10;40.50;;;;;;1534767;76;719;-60
2023/05/30 03:28:40;;;;;;;;;;;23.00;40.30;;;;;;1534644;76;1134;-60
2023/05/30 03:30:41;;;;;;;;;;;23.00;40.40;;;;;;1541520;76;1528;-60
2023/05/30 03:32:43;;;;;;;;;;;23.10;40.50;;;;;;1547656;76;1114;-60
2023/05/30 03:34:46;;;;;;;;;;;23.10;40.50;;;;;;1544204;76;705;-60
2023/05/30 03:36:52;;;;;;;;;;;23.00;40.40;;;;;;1543601;76;1187;-60
2023/05/30 03:38:51;;;;;;;;;;;23.00;40.40;;;;;;1542203;76;1577;-60
2023/05/30 03:40:53;;;;;;;;;;;23.00;40.40;;;;;;1533713;76;721;-60
2023/05/30 03:42:55;;;;;;;;;;;23.00;40.40;;;;;;1527677;76;675;-60
2023/05/30 03:44:57;;;;;;;;;;;23.00;40.40;;;;;;1536496;76;1931;-60
2023/05/30 03:46:59;;;;;;;;;;;23.00;40.60;;;;;;1534200;76;1141;-60
2023/05/30 03:49:01;;;;;;;;;;;23.10;40.70;;;;;;1534667;76;721;-60
2023/05/30 03:51:03;;;;;;;;;;;23.00;40.50;;;;;;1550361;76;731;-60
2023/05/30 03:53:05;;;;;;;;;;;23.00;40.50;;;;;;1529918;76;761;-60
2023/05/30 03:55:07;;;;;;;;;;;23.00;40.40;;;;;;1524734;76;644;-60
2023/05/30 03:57:09;;;;;;;;;;;23.10;40.60;;;;;;1540190;76;1335;-61
2023/05/30 03:59:10;;;;;;;;;;;23.10;40.60;;;;;;1538554;76;714;-61
2023/05/30 04:01:13;;;;;;;;;;;23.00;40.50;;;;;;1537844;76;708;-60
2023/05/30 04:03:19;;;;;;;;;;;23.00;40.50;;;;;;1545232;76;741;-60
2023/05/30 04:05:18;;;;;;;;;;;23.10;40.60;;;;;;1541255;76;1927;-60
2023/05/30 04:07:20;;;;;;;;;;;23.10;40.60;;;;;;1526783;76;1141;-60
2023/05/30 04:09:22;;;;;;;;;;;23.10;40.70;;;;;;1549025;76;653;-60
2023/05/30 04:11:24;;;;;;;;;;;23.10;40.60;;;;;;1526281;76;1445;-60
2023/05/30 04:13:26;;;;;;;;;;;23.10;40.60;;;;;;1531211;76;794;-61
2023/05/30 04:15:28;;;;;;;;;;;23.10;40.70;;;;;;1514044;76;719;-61
2023/05/30 04:17:30;;;;;;;;;;;23.10;40.70;;;;;;1542245;76;1134;-61
2023/05/30 04:19:32;;;;;;;;;;;23.10;40.70;;;;;;1541660;76;711;-60
2023/05/30 04:21:34;;;;;;;;;;;23.10;40.70;;;;;;1529572;76;708;-60
2023/05/30 04:23:38;;;;;;;;;;;23.10;40.70;;;;;;1519113;76;826;-60
2023/05/30 04:25:44;;;;;;;;;;;23.10;40.70;;;;;;1549106;76;1932;-60
2023/05/30 04:27:43;;;;;;;;;;;23.10;40.80;;;;;;1544218;76;1343;-61
2023/05/30 04:29:46;;;;;;;;;;;23.20;40.70;;;;;;1529502;76;739;-61
2023/05/30 04:31:48;;;;;;;;;;;23.20;40.70;;;;;;1544384;76;668;-61
2023/05/30 04:33:51;;;;;;;;;;;23.20;40.70;;;;;;1541101;76;814;-61
2023/05/30 04:35:53;;;;;;;;;;;23.20;40.70;;;;;;1540748;76;700;-61
2023/05/30 04:37:55;;;;;;;;;;;23.20;40.70;;;;;;1529338;76;1234;-61
2023/05/30 04:39:57;;;;;;;;;;;23.10;40.70;;;;;;1533982;76;1545;-61
2023/05/30 04:42:00;;;;;;;;;;;23.20;40.80;;;;;;1535145;76;825;-61
2023/05/30 04:44:03;;;;;;;;;;;23.20;40.70;;;;;;1543682;76;757;-61
2023/05/30 04:46:05;;;;;;;;;;;23.20;40.70;;;;;;1526241;76;1916;-61
2023/05/30 04:48:07;;;;;;;;;;;23.20;40.80;;;;;;1540857;76;1224;-61
2023/05/30 04:50:10;;;;;;;;;;;23.20;40.70;;;;;;1539886;76;749;-60
2023/05/30 04:52:12;;;;;;;;;;;23.20;40.90;;;;;;1537329;76;748;-59
2023/05/30 04:54:14;;;;;;;;;;;23.20;40.80;;;;;;1535394;76;1433;-60
2023/05/30 04:56:15;;;;;;;;;;;23.20;40.80;;;;;;1541288;76;663;-60
2023/05/30 04:58:17;;;;;;;;;;;23.20;40.70;;;;;;1532733;76;1119;-59
2023/05/30 05:00:20;;;;;;;;;;;23.10;40.70;;;;;;1533349;76;738;-59
2023/05/30 05:02:22;;;;;;;;;;;23.20;40.80;;;;;;1535207;76;711;-59
2023/05/30 05:04:24;;;;;;;;;;;23.20;40.80;;;;;;1529311;76;708;-60
2023/05/30 05:06:26;;;;;;;;;;;23.10;40.90;;;;;;1530081;76;1913;-60
2023/05/30 05:08:29;;;;;;;;;;;23.10;40.80;;;;;;1541953;75;1475;-59
2023/05/30 05:10:31;;;;;;;;;;;23.10;40.80;;;;;;1546750;75;705;-60
2023/05/30 05:12:33;;;;;;;;;;;23.10;40.80;;;;;;1556857;75;758;-60
2023/05/30 05:14:35;;;;;;;;;;;23.20;41.00;;;;;;1550282;75;702;-61
2023/05/30 05:16:36;;;;;;;;;;;23.10;41.00;;;;;;1536526;75;701;-60
2023/05/30 05:18:38;;;;;;;;;;;23.20;41.10;;;;;;1554883;75;1175;-61
2023/05/30 05:20:40;;;;;;;;;;;23.10;41.20;;;;;;1559848;75;682;-61
2023/05/30 05:22:42;;;;;;;;;;;23.10;41.40;;;;;;1546322;75;1491;-60
2023/05/30 05:24:44;;;;;;;;;;;23.20;41.30;;;;;;1553598;75;671;-61
2023/05/30 05:26:46;;;;;;;;;;;23.20;41.30;;;;;;1567073;75;1932;-61
2023/05/30 05:28:48;;;;;;;;;;;23.20;41.30;;;;;;1540973;75;738;-61
2023/05/30 05:30:50;;;;;;;;;;;23.20;41.40;;;;;;1544340;75;750;-61
2023/05/30 05:32:52;;;;;;;;;;;23.10;41.30;;;;;;1559045;75;730;-61
2023/05/30 05:36:47;;;;;;;;;;;23.20;41.40;;;;;;1600233;72;1533;-60
2023/05/30 05:38:50;;;;;;;;;;;23.30;41.20;;;;;;1580985;73;790;-60
2023/05/30 05:40:51;;;;;;;;;;;23.30;41.10;;;;;;1585624;73;710;-60
2023/05/30 05:42:53;;;;;;;;;;;23.40;41.00;;;;;;1580415;73;808;-60
2023/05/30 05:44:55;;;;;;;;;;;23.30;41.00;;;;;;1594372;73;1125;-60
2023/05/30 05:46:57;;;;;;;;;;;23.30;40.90;;;;;;1593995;73;1171;-60
2023/05/30 05:48:59;;;;;;;;;;;23.30;40.80;;;;;;1596434;73;689;-61
2023/05/30 05:51:01;;;;;;;;;;;23.30;40.90;;;;;;1598693;73;1416;-60
2023/05/30 05:53:03;;;;;;;;;;;23.30;41.00;;;;;;1589318;73;672;-60
2023/05/30 05:55:05;;;;;;;;;;;23.30;41.00;;;;;;1587679;73;1937;-60
2023/05/30 05:57:07;;;;;;;;;;;23.30;41.00;;;;;;1588511;73;1141;-60
2023/05/30 05:59:09;;;;;;;;;;;23.40;41.00;;;;;;1583897;73;714;-60
2023/05/30 06:01:11;;;;;;;;;;;23.30;41.00;;;;;;1588377;73;738;-61
2023/05/30 06:03:12;;;;;;;;;;;23.40;40.80;;;;;;1591809;73;706;-60
2023/05/30 06:05:14;;;;;;;;;;;23.40;40.70;;;;;;1589733;73;1428;-60
2023/05/30 06:07:16;;;;;;;;;;;23.40;40.60;;;;;;1591993;73;1144;-60
2023/05/30 06:09:18;;;;;;;;;;;23.40;40.50;;;;;;1588801;73;665;-61
2023/05/30 06:11:20;;;;;;;;;;;23.40;40.50;;;;;;1600984;73;794;-60
2023/05/30 06:13:22;;;;;;;;;;;23.50;40.70;;;;;;1594588;73;698;-60
2023/05/30 06:15:25;;;;;;;;;;;23.50;40.50;;;;;;1607626;73;1902;-61
2023/05/30 06:17:26;;;;;;;;;;;23.50;40.50;;;;;;1595618;73;1148;-61
2023/05/30 06:19:28;;;;;;;;;;;23.50;40.50;;;;;;1578343;73;1569;-60
2023/05/30 06:21:30;;;;;;;;;;;23.50;40.50;;;;;;1578683;73;722;-60
2023/05/30 06:23:32;;;;;;;;;;;23.30;40.30;;;;;;1592193;73;702;-60
2023/05/30 06:25:34;;;;;;;;;;;23.40;40.30;;;;;;1581732;73;719;-60
2023/05/30 06:27:36;;;;;;;;;;;23.50;40.60;;;;;;1583318;73;1206;-60
2023/05/30 06:29:38;;;;;;;;;;;23.40;40.50;;;;;;1583984;73;657;-60
2023/05/30 06:31:40;;;;;;;;;;;23.30;40.50;;;;;;1589186;73;718;-60
2023/05/30 06:33:42;;;;;;;;;;;23.30;40.50;;;;;;1583558;73;1166;-60
2023/05/30 06:35:44;;;;;;;;;;;23.30;40.50;;;;;;1608442;73;2131;-60
2023/05/30 06:37:46;;;;;;;;;;;23.20;40.40;;;;;;1570959;74;1142;-60
2023/05/30 06:39:48;;;;;;;;;;;23.20;40.40;;;;;;1575803;74;669;-58
2023/05/30 06:41:50;;;;;;;;;;;23.20;40.30;;;;;;1588520;74;1076;-59
2023/05/30 06:43:52;;;;;;;;;;;23.10;40.20;;;;;;1583170;74;752;-59
2023/05/30 06:45:54;;;;;;;;;;;23.20;40.20;;;;;;1570383;74;1338;-59
2023/05/30 06:47:56;;;;;;;;;;;23.20;40.20;;;;;;1580083;74;1213;-59
2023/05/30 06:49:58;;;;;;;;;;;23.20;40.10;;;;;;1577807;74;668;-59
2023/05/30 06:52:00;;;;;;;;;;;23.30;40.10;;;;;;1580048;74;1063;-59
2023/05/30 06:54:01;;;;;;;;;;;23.30;40.00;;;;;;1584128;74;1291;-59
2023/05/30 06:56:03;;;;;;;;;;;23.20;40.00;;;;;;1589422;73;1948;-60
2023/05/30 06:58:05;;;;;;;;;;;23.20;39.90;;;;;;1583040;73;1085;-59
2023/05/30 07:00:09;;;;;;;;;;;23.30;40.00;;;;;;1575902;73;1415;-60
2023/05/30 07:02:11;;;;;;;;;;;23.30;40.00;;;;;;1582983;74;1397;-60
2023/05/30 07:04:13;;;;;;;;;;;23.20;40.00;;;;;;1587869;73;1235;-60
2023/05/30 07:06:14;;;;;;;;;;;23.20;40.00;;;;;;1589547;74;1413;-60
2023/05/30 07:08:16;;;;;;;;;;;23.30;40.10;;;;;;1584225;74;1275;-60
2023/05/30 07:10:18;;;;;;;;;;;23.20;40.00;;;;;;1591862;74;1095;-59
2023/05/30 07:12:20;;;;;;;;;;;23.30;40.10;;;;;;1586724;74;1402;-60
2023/05/30 07:14:22;;;;;;;;;;;23.30;40.00;;;;;;1582992;74;1516;-60
2023/05/30 07:16:24;;;;;;;;;;;23.30;40.00;;;;;;1584995;74;1929;-59
2023/05/30 07:18:26;;;;;;;;;;;23.30;40.00;;;;;;1588549;74;1204;-59
2023/05/30 07:20:28;;;;;;;;;;;23.20;40.00;;;;;;1586507;74;1172;-59
2023/05/30 07:22:29;;;;;;;;;;;23.30;40.00;;;;;;1587099;74;1203;-59
2023/05/30 07:24:31;;;;;;;;;;;23.20;39.90;;;;;;1594610;74;1214;-59
2023/05/30 07:26:34;;;;;;;;;;;23.30;40.00;;;;;;1584726;74;1091;-59
2023/05/30 07:28:36;;;;;;;;;;;23.30;40.00;;;;;;1596255;74;1478;-59
2023/05/30 07:30:38;;;;;;;;;;;23.20;39.90;;;;;;1594819;74;1319;-59
2023/05/30 07:32:40;;;;;;;;;;;23.20;39.90;;;;;;1602133;74;1350;-59
2023/05/30 07:34:42;;;;;;;;;;;23.20;39.90;;;;;;1591024;74;1268;-61
2023/05/30 07:36:44;;;;;;;;;;;23.20;40.00;;;;;;1587258;74;1929;-60
2023/05/30 07:38:45;;;;;;;;;;;23.20;39.90;;;;;;1594378;74;1417;-60
2023/05/30 07:40:47;;;;;;;;;;;23.20;39.90;;;;;;1593942;74;1257;-60
2023/05/30 07:42:49;;;;;;;;;;;23.20;39.80;;;;;;1585860;74;1405;-60
2023/05/30 07:44:51;;;;;;;;;;;23.20;39.80;;;;;;1584495;74;1228;-60
2023/05/30 07:46:53;;;;;;;;;;;23.30;39.90;;;;;;1571848;74;1423;-58
2023/05/30 07:48:55;;;;;;;;;;;23.30;39.80;;;;;;1587729;73;1316;-59
2023/05/30 07:50:57;;;;;;;;;;;23.30;39.70;;;;;;1601123;72;1217;-59
2023/05/30 07:52:59;;;;;;;;;;;23.30;39.70;;;;;;1589549;74;1167;-59
2023/05/30 07:55:00;;;;;;;;;;;23.30;39.70;;;;;;1595310;74;1226;-60
2023/05/30 07:57:02;;;;;;;;;;;23.30;39.70;;;;;;1579944;74;1926;-60
2023/05/30 07:59:05;;;;;;;;;;;23.30;39.70;;;;;;1572873;74;1098;-59
2023/05/30 08:01:06;;;;;;;;;;;23.30;39.70;;;;;;1578588;73;1056;-58
2023/05/30 08:03:08;;;;;;;;;;;23.30;39.70;;;;;;1577161;73;1241;-59
2023/05/30 08:05:10;;;;;;;;;;;23.30;39.80;;;;;;1580965;74;1153;-59
2023/05/30 08:07:12;;;;;;;;;;;23.30;39.80;;;;;;1581305;73;1117;-59
2023/05/30 08:09:14;;;;;;;;;;;23.30;38.90;;;;;;1583713;73;1402;-59
2023/05/30 08:11:16;;;;;;;;;;;23.20;37.60;;;;;;1576100;73;1409;-58
2023/05/30 08:13:18;;;;;;;;;;;23.20;37.00;;;;;;1578794;74;1278;-59
2023/05/30 08:15:20;;;;;;;;;;;23.10;37.70;;;;;;1580177;74;1170;-58
2023/05/30 08:17:23;;;;;;;;;;;23.10;38.10;;;;;;1573692;74;1946;-59
2023/05/30 08:19:25;;;;;;;;;;;22.80;37.20;;;;;;1569910;74;1328;-60
2023/05/30 08:21:27;;;;;;;;;;;23.00;37.50;;;;;;1575133;74;1299;-58
2023/05/30 08:23:29;;;;;;;;;;;23.10;38.60;;;;;;1579822;73;1363;-59
2023/05/30 08:25:35;;;;;;;;;;;23.00;37.70;;;;;;1587017;74;1385;-59
2023/05/30 08:27:37;;;;;;;;;;;23.00;38.40;;;;;;1583019;74;1420;-59
2023/05/30 08:29:38;;;;;;;;;;;23.10;38.20;;;;;;1587558;73;1655;-59
2023/05/30 08:31:40;;;;;;;;;;;23.10;38.40;;;;;;1586954;74;1470;-59
2023/05/30 08:33:42;;;;;;;;;;;23.20;38.00;;;;;;1590040;74;1227;-58
2023/05/30 08:35:44;;;;;;;;;;;23.20;37.80;;;;;;1588516;74;1435;-59
2023/05/30 08:37:45;;;;;;;;;;;23.10;37.70;;;;;;1590016;74;1923;-59
2023/05/30 08:39:47;;;;;;;;;;;23.10;37.60;;;;;;1580605;74;1494;-59
2023/05/30 08:41:49;;;;;;;;;;;23.10;37.30;;;;;;1583473;74;1498;-59
2023/05/30 08:43:51;;;;;;;;;;;23.10;37.80;;;;;;1571801;74;1299;-59
2023/05/30 08:45:56;;;;;;;;;;;23.10;37.30;;;;;;1578028;73;1413;-58
2023/05/30 08:47:59;;;;;;;;;;;23.10;37.70;;;;;;1573884;73;1253;-59
2023/05/30 08:50:03;;;;;;;;;;;23.10;38.10;;;;;;1583554;73;1350;-59
2023/05/30 08:52:05;;;;;;;;;;;23.20;37.80;;;;;;1568519;73;2111;-60
2023/05/30 08:54:07;;;;;;;;;;;23.20;37.60;;;;;;1588951;74;1546;-58
2023/05/30 08:56:10;;;;;;;;;;;23.20;37.70;;;;;;1589099;74;1920;-58
2023/05/30 08:58:26;;;;;;;;;;;23.20;37.00;;;;;;1594355;74;1299;-58
2023/05/30 09:00:27;;;;;;;;;;;23.20;37.30;;;;;;1587025;74;1291;-58
2023/05/30 09:02:29;;;;;;;;;;;23.20;37.50;;;;;;1587396;74;1106;-59
2023/05/30 09:04:31;;;;;;;;;;;23.30;37.80;;;;;;1586622;74;722;-58
2023/05/30 09:06:36;;;;;;;;;;;23.20;37.30;;;;;;1584001;74;1453;-58
2023/05/30 09:08:37;;;;;;;;;;;23.20;37.90;;;;;;1592918;74;1096;-58
2023/05/30 09:10:48;;;;;;;;;;;23.30;37.30;;;;;;1585200;74;593;-59
2023/05/30 09:12:45;;;;;;;;;;;23.20;37.20;;;;;;1586834;74;1681;-60
2023/05/30 09:14:47;;;;;;;;;;;23.10;37.60;;;;;;1595708;74;712;-60
2023/05/30 09:16:49;;;;;;;;;;;23.10;38.10;;;;;;1591199;74;1973;-62
2023/05/30 09:18:51;;;;;;;;;;;23.30;38.30;;;;;;1585465;74;718;-61
2023/05/30 09:20:53;;;;;;;;;;;23.20;37.80;;;;;;1587434;74;1424;-61
2023/05/30 09:22:55;;;;;;;;;;;23.30;38.10;;;;;;1593081;74;771;-61
2023/05/30 09:24:58;;;;;;;;;;;23.30;38.20;;;;;;1594875;74;718;-59
2023/05/30 09:27:01;;;;;;;;;;;23.30;38.70;;;;;;1596683;74;1096;-62
2023/05/30 09:29:04;;;;;;;;;;;23.30;39.00;;;;;;1586663;74;788;-60
2023/05/30 09:31:06;;;;;;;;;;;23.30;39.00;;;;;;1581913;74;1621;-63
2023/05/30 09:33:08;;;;;;;;;;;23.30;39.00;;;;;;1597638;74;764;-60
2023/05/30 09:35:10;;;;;;;;;;;23.30;39.10;;;;;;1587028;74;1465;-59
2023/05/30 09:37:12;;;;;;;;;;;23.40;39.80;;;;;;1587851;74;1924;-60
2023/05/30 09:39:14;;;;;;;;;;;23.40;39.70;;;;;;1581491;74;698;-59
2023/05/30 09:41:16;;;;;;;;;;;23.40;39.90;;;;;;1591357;74;674;-59
2023/05/30 09:43:19;;;;;;;;;;;23.40;40.10;;;;;;1586072;74;721;-61
2023/05/30 09:45:22;;;;;;;;;;;23.40;39.70;;;;;;1576265;74;1636;-61
2023/05/30 09:47:24;;;;;;;;;;;23.40;40.10;;;;;;1592912;74;1144;-60
2023/05/30 09:49:28;;;;;;;;;;;23.50;40.50;;;;;;1587434;74;1473;-60
2023/05/30 09:51:31;;;;;;;;;;;23.50;41.00;;;;;;1592980;74;688;-61
2023/05/30 09:53:33;;;;;;;;;;;23.50;41.30;;;;;;1583016;74;944;-59
2023/05/30 09:55:36;;;;;;;;;;;23.60;41.70;;;;;;1584413;74;786;-58
2023/05/30 09:57:39;;;;;;;;;;;23.70;42.10;;;;;;1588673;74;1928;-61
2023/05/30 09:59:41;;;;;;;;;;;23.70;43.20;;;;;;1589611;74;760;-59
2023/05/30 10:01:44;;;;;;;;;;;23.70;43.40;;;;;;1592057;73;701;-60
2023/05/30 10:03:46;;;;;;;;;;;23.60;43.90;;;;;;1592188;74;1424;-62
2023/05/30 10:05:48;;;;;;;;;;;23.60;44.60;;;;;;1582341;73;738;-64
2023/05/30 10:07:50;;;;;;;;;;;23.70;42.30;;;;;;1579360;74;1119;-62
2023/05/30 10:09:52;;;;;;;;;;;23.60;42.20;;;;;;1581049;74;692;-61
2023/05/30 10:11:56;;;;;;;;;;;23.70;43.50;;;;;;1585089;74;752;-62
2023/05/30 10:13:58;;;;;;;;;;;23.60;43.80;;;;;;1587778;73;1624;-64
2023/05/30 10:16:00;;;;;;;;;;;23.70;43.60;;;;;;1582518;73;703;-62
2023/05/30 10:18:04;;;;;;;;;;;23.80;43.90;;;;;;1578333;74;1904;-63
2023/05/30 10:20:06;;;;;;;;;;;23.90;45.10;;;;;;1583701;74;1300;-63
2023/05/30 10:22:08;;;;;;;;;;;23.80;45.20;;;;;;1579762;74;731;-65
2023/05/30 10:24:10;;;;;;;;;;;23.80;43.40;;;;;;1583314;74;680;-65
2023/05/30 10:26:12;;;;;;;;;;;23.70;40.80;;;;;;1589198;74;719;-66
2023/05/30 10:28:18;;;;;;;;;;;23.70;40.90;;;;;;1582892;74;1121;-66
2023/05/30 10:30:28;;;;;;;;;;;23.70;41.60;;;;;;1590869;74;2021;-67
2023/05/30 10:32:31;;;;;;;;;;;23.80;39.70;;;;;;1582539;74;1664;-66
2023/05/30 10:34:38;;;;;;;;;;;23.70;40.20;;;;;;1576968;74;709;-66
2023/05/30 10:36:44;;;;;;;;;;;23.70;39.60;;;;;;1583917;74;1932;-65
2023/05/30 10:38:51;;;;;;;;;;;23.70;39.20;;;;;;1582796;74;713;-65
2023/05/30 10:41:03;;;;;;;;;;;23.70;40.40;;;;;;1592576;74;1891;-65
2023/05/30 15:51:08;;;;;;;;;;;23.00;39.80;;;;;;1613903;72;581;-67
2023/05/30 15:53:10;;;;;;;;;;;23.00;40.00;;;;;;1585779;73;640;-65
2023/05/30 15:55:11;;;;;;;;;;;23.10;39.90;;;;;;1577500;73;756;-68
2023/05/30 15:57:13;;;;;;;;;;;23.20;40.40;;;;;;1581563;73;1211;-67
2023/05/30 15:59:42;;;;;;;;;;;23.20;40.70;;;;;;1596749;72;648;-66
2023/05/30 16:01:44;;;;;;;;;;;23.20;40.80;;;;;;1565930;74;732;-67
2023/05/30 16:03:46;;;;;;;;;;;23.30;41.00;;;;;;1571999;74;798;-68
2023/05/30 16:05:48;;;;;;;;;;;23.30;41.30;;;;;;1573128;74;964;-66
2023/05/30 16:07:50;;;;;;;;;;;23.40;41.30;;;;;;1573047;74;1166;-68
2023/05/30 16:09:52;;;;;;;;;;;23.50;40.80;;;;;;1553554;75;723;-68
2023/05/30 16:11:53;;;;;;;;;;;23.50;42.00;;;;;;1547612;75;710;-67
2023/05/30 16:13:55;;;;;;;;;;;23.40;41.80;;;;;;1550662;75;708;-68
2023/05/30 16:15:57;;;;;;;;;;;23.40;39.50;;;;;;1542566;75;818;-68
2023/05/30 16:17:59;;;;;;;;;;;23.30;38.40;;;;;;1558578;76;1946;-68
2023/05/30 16:20:01;;;;;;;;;;;23.30;37.80;;;;;;1542685;74;1127;-67
2023/05/30 16:22:03;;;;;;;;;;;23.20;37.10;;;;;;1556197;74;1289;-67
2023/05/30 16:24:05;;;;;;;;;;;23.20;37.60;;;;;;1557875;74;1339;-67
2023/05/30 16:26:08;;;;;;;;;;;23.10;37.00;;;;;;1555755;75;1500;-68
2023/05/30 16:28:11;;;;;;;;;;;23.10;37.20;;;;;;1564357;74;1717;-68
2023/05/30 16:30:13;;;;;;;;;;;23.10;37.80;;;;;;1563658;74;1273;-67
2023/05/30 16:32:15;;;;;;;;;;;23.10;37.10;;;;;;1561841;74;1309;-68
2023/05/30 16:34:17;;;;;;;;;;;23.10;37.50;;;;;;1566640;74;1278;-68
2023/05/30 16:36:20;;;;;;;;;;;23.20;36.10;;;;;;1560437;74;1383;-68
2023/05/30 16:38:22;;;;;;;;;;;23.00;36.70;;;;;;1523751;76;1980;-68
2023/05/30 16:40:24;;;;;;;;;;;23.00;36.00;;;;;;1525550;76;1093;-68
2023/05/30 16:42:26;;;;;;;;;;;23.00;36.20;;;;;;1540281;75;1585;-68
2023/05/30 16:44:29;;;;;;;;;;;23.00;37.60;;;;;;1556733;74;1449;-68
2023/05/30 16:46:31;;;;;;;;;;;23.00;37.10;;;;;;1561266;74;1182;-68
2023/05/30 16:48:33;;;;;;;;;;;23.00;37.00;;;;;;1562031;75;1441;-68
2023/05/30 16:50:35;;;;;;;;;;;23.00;37.10;;;;;;1559895;74;1336;-68
2023/05/30 16:52:37;;;;;;;;;;;22.90;37.10;;;;;;1554621;74;1316;-68
2023/05/30 16:54:39;;;;;;;;;;;22.90;37.80;;;;;;1551156;75;1507;-67
2023/05/30 16:56:41;;;;;;;;;;;22.90;37.20;;;;;;1546130;75;1667;-67
2023/05/30 16:58:43;;;;;;;;;;;22.90;37.20;;;;;;1553480;75;1960;-67
2023/05/30 17:00:45;;;;;;;;;;;22.90;37.60;;;;;;1545454;75;1302;-68
2023/05/30 17:02:47;;;;;;;;;;;22.90;37.60;;;;;;1550349;75;1325;-67
2023/05/30 17:04:49;;;;;;;;;;;22.90;37.20;;;;;;1545940;75;1486;-67
2023/05/30 17:06:50;;;;;;;;;;;22.80;37.20;;;;;;1553586;74;1662;-67
2023/05/30 17:08:52;;;;;;;;;;;22.70;37.50;;;;;;1554770;75;1298;-67
2023/05/30 17:10:54;;;;;;;;;;;22.70;38.10;;;;;;1549521;75;1150;-67
2023/05/30 17:12:56;;;;;;;;;;;22.70;37.60;;;;;;1554996;75;1282;-65
2023/05/30 17:14:58;;;;;;;;;;;22.60;37.20;;;;;;1548385;75;1230;-63
2023/05/30 17:17:00;;;;;;;;;;;22.60;37.40;;;;;;1545730;75;1165;-67
2023/05/30 17:19:04;;;;;;;;;;;22.60;37.40;;;;;;1547490;75;1929;-67